createdAt,value
2023-04-15T00:09:38.065Z,287
2023-04-15T00:29:38.153Z,285
2023-04-15T00:49:38.126Z,286
2023-04-15T01:09:38.155Z,285
2023-04-15T01:29:38.189Z,287
2023-04-15T01:49:38.218Z,284
2023-04-15T02:09:38.240Z,282
2023-04-15T02:29:38.289Z,282
2023-04-15T02:49:38.354Z,282
2023-04-15T03:09:38.374Z,286
2023-04-15T03:29:38.396Z,285
2023-04-15T03:49:38.442Z,285
2023-04-15T04:09:38.531Z,285
2023-04-15T04:29:38.590Z,284
2023-04-15T04:49:38.512Z,283
2023-04-15T05:09:38.566Z,284
2023-04-15T05:29:38.646Z,286
2023-04-15T05:49:38.657Z,284
2023-04-15T06:09:38.711Z,289
2023-04-15T06:29:38.724Z,286
2023-04-15T06:49:38.824Z,295
2023-04-15T07:09:38.785Z,290
2023-04-15T07:29:38.867Z,287
2023-04-15T07:49:38.850Z,285
2023-04-15T08:09:38.872Z,288
2023-04-15T08:29:38.927Z,282
2023-04-15T08:49:38.919Z,280
2023-04-15T09:09:38.986Z,285
2023-04-15T09:29:38.964Z,281
2023-04-15T09:49:39.051Z,281
2023-04-15T10:09:39.070Z,278
2023-04-15T10:29:39.060Z,278
2023-04-15T10:49:39.056Z,279
2023-04-15T11:09:39.086Z,278
2023-04-15T11:29:39.134Z,274
2023-04-15T11:49:39.145Z,278
2023-04-15T12:09:39.139Z,273
2023-04-15T12:29:39.225Z,276
2023-04-15T12:49:39.243Z,280
2023-04-15T13:09:39.261Z,278
2023-04-15T13:29:39.296Z,278
2023-04-15T13:49:39.328Z,277
2023-04-15T14:09:43.225Z,280
2023-04-15T14:29:39.372Z,279
2023-04-15T14:49:39.357Z,276
2023-04-15T15:09:39.429Z,277
2023-04-15T15:29:39.411Z,281
2023-04-15T15:49:39.463Z,279
2023-04-15T16:09:39.444Z,284
2023-04-15T16:29:39.480Z,278
2023-04-15T16:49:39.506Z,281
2023-04-15T17:09:39.549Z,278
2023-04-15T17:29:39.568Z,279
2023-04-15T17:49:39.616Z,278
2023-04-15T18:09:39.617Z,276
2023-04-15T18:29:39.649Z,278
2023-04-15T18:49:39.655Z,284
2023-04-15T19:09:39.700Z,282
2023-04-15T19:29:39.716Z,285
2023-04-15T19:49:39.853Z,286
2023-04-15T20:09:39.764Z,283
2023-04-15T20:29:39.778Z,284
2023-04-15T20:49:39.819Z,286
2023-04-15T21:09:39.844Z,285
2023-04-15T21:29:39.889Z,284
2023-04-15T21:49:39.946Z,287
2023-04-15T22:09:39.942Z,283
2023-04-15T22:29:39.956Z,288
2023-04-15T22:49:39.966Z,287
2023-04-15T23:09:40.005Z,285
2023-04-15T23:29:40.055Z,287
2023-04-15T23:49:40.050Z,283
